createdAt,value
2023-05-15T00:00:23.184Z,13.41
2023-05-15T00:02:49.899Z,13.44
2023-05-15T00:05:16.651Z,13.45
2023-05-15T00:07:43.566Z,13.47
2023-05-15T00:10:10.609Z,13.47
2023-05-15T00:12:37.252Z,13.46
2023-05-15T00:15:04.135Z,13.48
2023-05-15T00:17:30.802Z,13.49
2023-05-15T00:19:57.527Z,13.48
2023-05-15T00:22:24.129Z,13.48
2023-05-15T00:24:50.756Z,13.48
2023-05-15T00:27:17.392Z,13.46
2023-05-15T00:29:44.038Z,13.44
2023-05-15T00:32:10.745Z,13.43
2023-05-15T00:34:37.382Z,13.42
2023-05-15T00:37:04.207Z,13.40
2023-05-15T00:39:31.523Z,13.38
2023-05-15T00:42:01.914Z,13.38
2023-05-15T00:44:31.204Z,13.38
2023-05-15T00:46:59.532Z,13.35
2023-05-15T00:49:28.193Z,13.34
2023-05-15T00:51:56.590Z,13.31
2023-05-15T00:54:23.301Z,13.29
2023-05-15T00:56:50.769Z,13.26
2023-05-15T00:59:17.618Z,13.24
2023-05-15T01:01:44.470Z,13.23
2023-05-15T01:04:12.084Z,13.21
2023-05-15T01:06:38.724Z,13.21
2023-05-15T01:09:07.560Z,13.22
2023-05-15T01:11:37.944Z,13.21
2023-05-15T01:14:06.067Z,13.22
2023-05-15T01:16:33.083Z,13.15
2023-05-15T01:19:02.200Z,13.22
2023-05-15T01:22:13.341Z,13.22
2023-05-15T01:24:51.132Z,13.24
2023-05-15T01:27:35.659Z,13.24
2023-05-15T01:30:24.193Z,13.26
2023-05-15T01:33:15.818Z,13.27
2023-05-15T01:36:07.939Z,13.27
2023-05-15T01:38:43.363Z,13.28
2023-05-15T01:41:27.164Z,13.29
2023-05-15T01:44:07.880Z,13.30
2023-05-15T01:46:39.317Z,13.31
2023-05-15T01:49:09.376Z,13.33
2023-05-15T01:51:38.156Z,13.33
2023-05-15T01:54:07.353Z,13.33
2023-05-15T01:56:36.104Z,13.33
2023-05-15T01:59:05.343Z,13.33
2023-05-15T02:01:33.288Z,13.32
2023-05-15T02:04:02.644Z,13.31
2023-05-15T02:06:31.658Z,13.31
2023-05-15T02:08:59.503Z,13.30
2023-05-15T02:11:26.157Z,13.28
2023-05-15T02:13:54.992Z,13.28
2023-05-15T02:16:21.897Z,13.28
2023-05-15T02:18:49.418Z,13.27
2023-05-15T02:21:16.417Z,13.27
2023-05-15T02:23:43.219Z,13.24
2023-05-15T02:26:23.141Z,13.26
2023-05-15T02:29:17.858Z,13.25
2023-05-15T02:32:05.201Z,13.27
2023-05-15T02:34:45.231Z,13.28
2023-05-15T02:37:16.895Z,13.27
2023-05-15T02:39:44.234Z,13.29
2023-05-15T02:42:14.974Z,13.30
2023-05-15T02:44:43.572Z,13.31
2023-05-15T02:47:11.880Z,13.32
2023-05-15T02:49:39.914Z,13.31
2023-05-15T02:52:07.314Z,13.32
2023-05-15T02:54:33.943Z,13.31
2023-05-15T02:57:00.579Z,13.33
2023-05-15T02:59:27.218Z,13.31
2023-05-15T03:01:53.896Z,13.29
2023-05-15T03:04:21.090Z,13.28
2023-05-15T03:06:47.771Z,13.25
2023-05-15T03:09:14.431Z,13.23
2023-05-15T03:11:41.079Z,13.22
2023-05-15T03:14:07.922Z,13.20
2023-05-15T03:16:34.710Z,13.19
2023-05-15T03:19:01.450Z,13.16
2023-05-15T03:21:28.152Z,13.14
2023-05-15T03:23:54.763Z,13.14
2023-05-15T03:26:21.597Z,13.09
2023-05-15T03:28:48.189Z,13.04
2023-05-15T03:31:14.789Z,13.01
2023-05-15T03:33:41.591Z,12.99
2023-05-15T03:36:08.635Z,12.97
2023-05-15T03:38:35.381Z,12.94
2023-05-15T03:41:02.054Z,12.91
2023-05-15T03:43:32.177Z,12.90
2023-05-15T03:45:59.407Z,12.91
2023-05-15T03:48:26.050Z,12.89
2023-05-15T03:50:52.943Z,12.89
2023-05-15T03:53:19.613Z,12.89
2023-05-15T03:55:46.366Z,12.87
2023-05-15T03:58:13.064Z,12.89
2023-05-15T04:00:39.737Z,12.90
2023-05-15T04:03:06.554Z,12.91
2023-05-15T04:05:33.345Z,12.92
2023-05-15T04:08:00.079Z,12.93
2023-05-15T04:10:26.821Z,12.95
2023-05-15T04:12:53.602Z,12.96
2023-05-15T04:15:25.015Z,12.95
2023-05-15T04:17:53.378Z,12.96
2023-05-15T04:20:22.913Z,12.97
2023-05-15T04:22:50.262Z,12.99
2023-05-15T04:25:17.038Z,13.00
2023-05-15T04:27:44.708Z,13.01
2023-05-15T04:30:12.705Z,13.03
2023-05-15T04:32:40.750Z,13.05
2023-05-15T04:35:08.610Z,13.07
2023-05-15T04:37:35.247Z,13.09
2023-05-15T04:40:02.138Z,13.12
2023-05-15T04:42:28.840Z,13.14
2023-05-15T04:44:55.472Z,13.14
2023-05-15T04:47:22.091Z,13.17
2023-05-15T04:49:48.768Z,13.18
2023-05-15T04:52:15.570Z,13.20
2023-05-15T04:54:42.270Z,13.22
2023-05-15T04:57:09.304Z,13.23
2023-05-15T04:59:36.048Z,13.23
2023-05-15T05:02:02.958Z,13.25
2023-05-15T05:04:29.886Z,13.29
2023-05-15T05:06:56.556Z,13.33
2023-05-15T05:09:23.126Z,13.35
2023-05-15T05:11:49.822Z,13.35
2023-05-15T05:14:16.507Z,13.36
2023-05-15T05:16:45.016Z,13.37
2023-05-15T05:19:11.793Z,13.38
2023-05-15T05:21:38.536Z,13.41
2023-05-15T05:24:05.776Z,13.43
2023-05-15T05:26:32.574Z,13.45
2023-05-15T05:28:59.300Z,13.48
2023-05-15T05:31:25.974Z,13.49
2023-05-15T05:33:52.837Z,13.53
2023-05-15T05:36:19.693Z,13.54
2023-05-15T05:38:46.297Z,13.57
2023-05-15T05:41:13.004Z,13.61
2023-05-15T05:43:39.611Z,13.64
2023-05-15T05:46:06.419Z,13.67
2023-05-15T05:48:32.991Z,13.67
2023-05-15T05:50:59.534Z,13.68
2023-05-15T05:53:26.142Z,13.69
2023-05-15T05:55:52.850Z,13.71
2023-05-15T05:58:25.433Z,13.72
2023-05-15T06:00:53.918Z,13.74
2023-05-15T06:03:21.586Z,13.77
2023-05-15T06:05:48.357Z,13.77
2023-05-15T06:08:15.192Z,13.77
2023-05-15T06:10:41.769Z,13.77
2023-05-15T06:13:08.602Z,13.74
2023-05-15T06:15:35.247Z,13.73
2023-05-15T06:18:01.974Z,13.73
2023-05-15T06:20:28.771Z,13.73
2023-05-15T06:22:55.397Z,13.72
2023-05-15T06:25:22.219Z,13.70
2023-05-15T06:27:48.924Z,13.72
2023-05-15T06:30:15.802Z,13.73
2023-05-15T06:32:42.618Z,13.71
2023-05-15T06:35:10.430Z,13.71
2023-05-15T06:37:37.724Z,13.70
2023-05-15T06:40:05.779Z,13.72
2023-05-15T06:42:32.791Z,13.75
2023-05-15T06:45:00.533Z,13.78
2023-05-15T06:47:27.261Z,13.81
2023-05-15T06:49:54.603Z,13.85
2023-05-15T06:52:21.329Z,13.89
2023-05-15T06:54:47.962Z,13.89
2023-05-15T06:57:14.868Z,13.91
2023-05-15T06:59:41.440Z,13.97
2023-05-15T07:02:08.176Z,14.00
2023-05-15T07:04:35.054Z,14.03
2023-05-15T07:07:01.729Z,14.09
2023-05-15T07:09:28.320Z,14.15
2023-05-15T07:11:55.047Z,14.21
2023-05-15T07:14:21.787Z,14.27
2023-05-15T07:16:48.480Z,14.36
2023-05-15T07:19:18.681Z,14.43
2023-05-15T07:21:45.336Z,14.52
2023-05-15T07:24:11.930Z,14.63
2023-05-15T07:26:50.301Z,14.71
2023-05-15T07:29:25.148Z,14.79
2023-05-15T07:31:51.775Z,14.88
2023-05-15T07:34:18.575Z,14.97
2023-05-15T07:36:45.197Z,15.02
2023-05-15T07:39:11.953Z,15.08
2023-05-15T07:41:38.545Z,15.11
2023-05-15T07:44:05.216Z,15.14
2023-05-15T07:46:31.910Z,15.18
2023-05-15T07:48:58.514Z,15.16
2023-05-15T07:51:25.236Z,15.17
2023-05-15T07:53:51.881Z,15.16
2023-05-15T07:56:18.450Z,15.17
2023-05-15T07:58:45.263Z,15.21
2023-05-15T08:01:11.848Z,15.27
2023-05-15T08:03:38.503Z,15.32
2023-05-15T08:06:05.693Z,15.37
2023-05-15T08:08:32.445Z,15.43
2023-05-15T08:10:59.142Z,15.51
2023-05-15T08:13:50.467Z,15.57
2023-05-15T08:16:18.585Z,15.65
2023-05-15T08:18:45.144Z,15.64
2023-05-15T08:21:11.713Z,15.68
2023-05-15T08:23:38.205Z,15.75
2023-05-15T08:26:04.749Z,15.84
2023-05-15T08:28:31.291Z,15.92
2023-05-15T08:30:57.821Z,16.00
2023-05-15T08:33:24.456Z,16.04
2023-05-15T08:35:51.076Z,16.10
2023-05-15T08:38:17.599Z,16.16
2023-05-15T08:40:46.661Z,16.24
2023-05-15T08:43:15.436Z,16.32
2023-05-15T08:45:42.159Z,16.41
2023-05-15T08:48:11.037Z,16.51
2023-05-15T08:50:38.976Z,16.65
2023-05-15T08:53:05.698Z,16.74
2023-05-15T08:55:32.554Z,16.79
2023-05-15T08:57:59.911Z,16.86
2023-05-15T09:00:26.482Z,16.91
2023-05-15T09:02:54.449Z,16.95
2023-05-15T09:05:21.011Z,16.97
2023-05-15T09:07:48.156Z,17.01
2023-05-15T09:10:14.678Z,17.08
2023-05-15T09:12:42.461Z,17.15
2023-05-15T09:15:10.195Z,17.22
2023-05-15T09:17:36.793Z,17.35
2023-05-15T09:20:03.915Z,17.44
2023-05-15T09:22:33.527Z,17.50
2023-05-15T09:25:00.003Z,17.67
2023-05-15T09:27:26.507Z,17.80
2023-05-15T09:29:52.995Z,17.84
2023-05-15T09:32:20.101Z,17.93
2023-05-15T09:34:46.801Z,18.08
2023-05-15T09:37:27.790Z,18.23
2023-05-15T09:39:54.588Z,18.40
2023-05-15T09:42:21.085Z,18.46
2023-05-15T09:44:47.656Z,18.52
2023-05-15T09:47:14.517Z,18.55
2023-05-15T09:49:44.049Z,18.60
2023-05-15T09:52:11.122Z,18.68
2023-05-15T09:54:37.696Z,18.77
2023-05-15T09:57:11.433Z,18.81
2023-05-15T09:59:44.809Z,18.84
2023-05-15T10:02:13.824Z,18.92
2023-05-15T10:04:40.460Z,18.98
2023-05-15T10:07:08.170Z,19.00
2023-05-15T10:09:34.653Z,19.03
2023-05-15T10:12:01.342Z,19.06
2023-05-15T10:14:27.875Z,19.05
2023-05-15T10:16:55.370Z,18.98
2023-05-15T10:19:23.000Z,18.91
2023-05-15T10:21:50.485Z,18.82
2023-05-15T10:24:19.706Z,18.78
2023-05-15T10:26:47.548Z,18.76
2023-05-15T10:29:15.351Z,18.81
2023-05-15T10:31:42.299Z,18.85
2023-05-15T10:34:10.813Z,18.93
2023-05-15T10:36:38.212Z,18.96
2023-05-15T10:39:06.295Z,19.12
2023-05-15T10:41:33.727Z,19.23
2023-05-15T10:44:00.827Z,19.36
2023-05-15T10:46:31.738Z,19.48
2023-05-15T10:48:58.757Z,19.60
2023-05-15T10:51:27.111Z,19.67
2023-05-15T10:53:54.166Z,19.73
2023-05-15T10:56:21.064Z,19.85
2023-05-15T10:58:52.056Z,19.94
2023-05-15T11:01:25.456Z,20.04
2023-05-15T11:03:53.895Z,20.08
2023-05-15T11:06:28.499Z,20.12
2023-05-15T11:09:14.998Z,20.19
2023-05-15T11:11:58.263Z,20.27
2023-05-15T11:14:25.370Z,20.40
2023-05-15T11:16:54.872Z,20.49
2023-05-15T11:19:25.527Z,20.56
2023-05-15T11:21:58.767Z,20.64
2023-05-15T11:24:30.267Z,20.73
2023-05-15T11:27:03.818Z,20.77
2023-05-15T11:29:30.758Z,20.76
2023-05-15T11:31:57.499Z,20.91
2023-05-15T11:34:33.278Z,20.93
2023-05-15T11:36:59.971Z,20.99
2023-05-15T11:39:26.950Z,21.04
2023-05-15T11:41:54.171Z,21.05
2023-05-15T11:44:21.518Z,21.00
2023-05-15T11:46:48.694Z,21.02
2023-05-15T11:49:15.704Z,20.96
2023-05-15T11:51:42.951Z,20.94
2023-05-15T11:54:10.687Z,20.93
2023-05-15T11:56:41.825Z,20.91
2023-05-15T11:59:09.730Z,20.80
2023-05-15T12:01:43.219Z,20.68
2023-05-15T12:04:16.986Z,20.50
2023-05-15T12:06:44.191Z,20.38
2023-05-15T12:09:14.855Z,20.29
2023-05-15T12:11:41.370Z,20.25
2023-05-15T12:14:11.101Z,20.26
2023-05-15T12:16:37.793Z,20.38
2023-05-15T12:19:04.460Z,20.47
2023-05-15T12:21:31.096Z,20.59
2023-05-15T12:26:29.293Z,20.73
2023-05-15T12:28:56.268Z,20.82
2023-05-15T12:31:23.042Z,20.92
2023-05-15T12:33:49.826Z,21.04
2023-05-15T12:36:19.782Z,21.07
2023-05-15T12:38:46.450Z,20.96
2023-05-15T12:41:13.057Z,20.90
2023-05-15T12:43:40.214Z,20.82
2023-05-15T12:46:06.870Z,20.77
2023-05-15T12:48:33.505Z,20.57
2023-05-15T12:51:09.308Z,20.45
2023-05-15T12:53:35.947Z,20.29
2023-05-15T12:56:02.605Z,20.16
2023-05-15T12:58:29.093Z,20.02
2023-05-15T13:00:55.970Z,19.83
2023-05-15T13:03:22.780Z,19.66
2023-05-15T13:05:49.375Z,19.55
2023-05-15T13:08:16.868Z,19.47
2023-05-15T13:10:43.775Z,19.35
2023-05-15T13:13:10.253Z,19.31
2023-05-15T13:15:43.865Z,19.28
2023-05-15T13:18:14.599Z,19.21
2023-05-15T13:20:42.480Z,19.30
2023-05-15T13:23:09.860Z,19.32
2023-05-15T13:25:36.429Z,19.33
2023-05-15T13:28:04.714Z,19.43
2023-05-15T13:30:32.225Z,19.47
2023-05-15T13:32:58.843Z,19.55
2023-05-15T13:35:25.462Z,19.57
2023-05-15T13:37:52.039Z,19.67
2023-05-15T13:40:18.613Z,19.72
2023-05-15T13:42:45.439Z,19.79
2023-05-15T13:45:13.215Z,19.82
2023-05-15T13:47:39.870Z,19.89
2023-05-15T13:50:07.451Z,19.91
2023-05-15T13:52:34.001Z,19.92
2023-05-15T13:55:03.804Z,19.96
2023-05-15T13:57:30.621Z,19.94
2023-05-15T13:59:57.310Z,19.93
2023-05-15T14:02:23.964Z,19.88
2023-05-15T14:04:50.589Z,19.80
2023-05-15T14:07:17.136Z,19.76
2023-05-15T14:09:43.691Z,19.63
2023-05-15T14:12:10.199Z,19.63
2023-05-15T14:14:36.805Z,19.55
2023-05-15T14:17:03.558Z,19.44
2023-05-15T14:19:30.129Z,19.38
2023-05-15T14:21:56.611Z,19.31
2023-05-15T14:24:23.143Z,19.24
2023-05-15T14:26:49.712Z,19.24
2023-05-15T14:29:16.207Z,19.30
2023-05-15T14:31:42.832Z,19.30
2023-05-15T14:34:09.374Z,19.30
2023-05-15T14:36:35.846Z,19.25
2023-05-15T14:39:02.417Z,19.22
2023-05-15T14:41:28.918Z,19.24
2023-05-15T14:43:55.437Z,19.19
2023-05-15T14:46:22.099Z,19.15
2023-05-15T14:48:48.576Z,19.08
2023-05-15T14:51:16.070Z,19.09
2023-05-15T14:53:43.696Z,19.04
2023-05-15T14:56:10.267Z,19.08
2023-05-15T14:58:36.787Z,19.06
2023-05-15T15:01:03.705Z,19.12
2023-05-15T15:03:34.252Z,19.13
2023-05-15T15:06:00.972Z,19.19
2023-05-15T15:08:27.459Z,19.28
2023-05-15T15:10:53.968Z,19.39
2023-05-15T15:13:20.856Z,19.66
2023-05-15T15:15:47.519Z,19.96
2023-05-15T15:18:14.256Z,20.19
2023-05-15T15:20:41.298Z,20.30
2023-05-15T15:23:07.876Z,20.35
2023-05-15T15:25:34.442Z,20.39
2023-05-15T15:28:02.325Z,20.52
2023-05-15T15:30:28.890Z,20.71
2023-05-15T15:32:55.497Z,20.99
2023-05-15T15:35:22.067Z,21.24
2023-05-15T15:37:48.671Z,21.54
2023-05-15T15:40:15.265Z,21.84
2023-05-15T15:42:41.878Z,22.10
2023-05-15T15:45:08.622Z,22.17
2023-05-15T15:47:35.394Z,22.06
2023-05-15T15:50:01.981Z,21.89
2023-05-15T15:52:28.510Z,21.70
2023-05-15T15:54:55.068Z,21.65
2023-05-15T15:57:21.818Z,21.57
2023-05-15T15:59:48.385Z,21.43
2023-05-15T16:02:15.290Z,21.56
2023-05-15T16:04:41.889Z,21.66
2023-05-15T16:07:08.496Z,21.70
2023-05-15T16:09:35.054Z,21.65
2023-05-15T16:12:01.553Z,21.55
2023-05-15T16:14:28.252Z,21.44
2023-05-15T16:16:55.049Z,21.26
2023-05-15T16:19:21.784Z,21.13
2023-05-15T16:21:49.241Z,21.05
2023-05-15T16:24:15.885Z,20.93
2023-05-15T16:26:42.373Z,20.66
2023-05-15T16:29:08.854Z,20.54
2023-05-15T16:31:36.278Z,20.44
2023-05-15T16:34:03.766Z,20.38
2023-05-15T16:36:30.531Z,20.32
2023-05-15T16:38:57.037Z,20.28
2023-05-15T16:41:23.581Z,20.19
2023-05-15T16:43:50.069Z,20.13
2023-05-15T16:46:16.711Z,20.09
2023-05-15T16:48:43.229Z,20.00
2023-05-15T16:51:09.767Z,19.94
2023-05-15T16:53:36.326Z,19.86
2023-05-15T16:56:02.938Z,19.82
2023-05-15T16:58:29.453Z,19.74
2023-05-15T17:00:56.037Z,19.73
2023-05-15T17:03:22.628Z,19.70
2023-05-15T17:05:49.290Z,19.71
2023-05-15T17:08:15.887Z,19.72
2023-05-15T17:10:42.378Z,19.77
2023-05-15T17:13:08.851Z,19.79
2023-05-15T17:15:35.420Z,19.79
2023-05-15T17:18:01.994Z,19.76
2023-05-15T17:20:28.529Z,19.73
2023-05-15T17:22:54.993Z,19.79
2023-05-15T17:25:21.517Z,19.75
2023-05-15T17:27:47.970Z,19.77
2023-05-15T17:30:14.699Z,19.79
2023-05-15T17:32:41.332Z,19.81
2023-05-15T17:35:08.144Z,19.79
2023-05-15T17:37:34.862Z,19.76
2023-05-15T17:40:01.495Z,19.65
2023-05-15T17:42:27.961Z,19.48
2023-05-15T17:44:54.600Z,19.31
2023-05-15T17:47:21.128Z,19.14
2023-05-15T17:49:47.664Z,18.99
2023-05-15T17:52:14.213Z,18.80
2023-05-15T17:54:40.731Z,18.64
2023-05-15T17:57:07.226Z,18.47
2023-05-15T17:59:33.762Z,18.33
2023-05-15T18:02:00.360Z,18.19
2023-05-15T18:04:27.064Z,18.06
2023-05-15T18:06:53.656Z,17.94
2023-05-15T18:09:21.715Z,17.82
2023-05-15T18:11:49.790Z,17.70
2023-05-15T18:14:16.281Z,17.60
2023-05-15T18:16:42.788Z,17.49
2023-05-15T18:19:09.447Z,17.39
2023-05-15T18:21:37.845Z,17.31
2023-05-15T18:24:04.815Z,17.22
2023-05-15T18:26:31.364Z,17.15
2023-05-15T18:28:57.882Z,17.10
2023-05-15T18:31:24.632Z,17.02
2023-05-15T18:33:51.196Z,16.97
2023-05-15T18:36:17.790Z,16.91
2023-05-15T18:38:44.300Z,16.83
2023-05-15T18:41:10.798Z,16.78
2023-05-15T18:43:37.368Z,16.70
2023-05-15T18:46:04.158Z,16.65
2023-05-15T18:48:30.643Z,16.57
2023-05-15T18:50:57.329Z,16.50
2023-05-15T18:53:23.888Z,16.45
2023-05-15T18:55:50.438Z,16.40
2023-05-15T18:58:16.936Z,16.32
2023-05-15T19:00:43.658Z,16.28
2023-05-15T19:03:10.340Z,16.19
2023-05-15T19:05:37.115Z,16.14
2023-05-15T19:08:03.677Z,16.04
2023-05-15T19:10:30.325Z,15.98
2023-05-15T19:12:57.396Z,15.88
2023-05-15T19:15:24.263Z,15.80
2023-05-15T19:17:50.858Z,15.68
2023-05-15T19:20:17.465Z,15.61
2023-05-15T19:22:44.013Z,15.51
2023-05-15T19:25:10.984Z,15.43
2023-05-15T19:27:37.562Z,15.37
2023-05-15T19:30:04.643Z,15.27
2023-05-15T19:32:34.104Z,15.23
2023-05-15T19:35:00.829Z,15.17
2023-05-15T19:37:27.306Z,15.09
2023-05-15T19:39:53.902Z,15.00
2023-05-15T19:42:20.377Z,14.97
2023-05-15T19:44:46.855Z,14.90
2023-05-15T19:47:13.365Z,14.85
2023-05-15T19:49:39.872Z,14.80
2023-05-15T19:52:06.408Z,14.75
2023-05-15T19:54:32.923Z,14.71
2023-05-15T19:56:59.483Z,14.69
2023-05-15T19:59:25.998Z,14.65
2023-05-15T20:01:52.545Z,14.64
2023-05-15T20:04:19.349Z,14.58
2023-05-15T20:06:45.936Z,14.58
2023-05-15T20:09:12.444Z,14.58
2023-05-15T20:11:38.940Z,14.58
2023-05-15T20:14:05.613Z,14.58
2023-05-15T20:16:32.422Z,14.57
2023-05-15T20:18:59.118Z,14.56
2023-05-15T20:21:25.899Z,14.51
2023-05-15T20:23:52.668Z,14.52
2023-05-15T20:26:19.637Z,14.54
2023-05-15T20:28:46.325Z,14.55
2023-05-15T20:31:12.972Z,14.56
2023-05-15T20:33:39.820Z,14.58
2023-05-15T20:36:06.745Z,14.60
2023-05-15T20:38:33.207Z,14.60
2023-05-15T20:41:00.113Z,14.60
2023-05-15T20:43:26.936Z,14.64
2023-05-15T20:45:53.914Z,14.65
2023-05-15T20:48:21.060Z,14.65
2023-05-15T20:50:47.743Z,14.65
2023-05-15T20:53:14.380Z,14.65
2023-05-15T20:55:41.010Z,14.65
2023-05-15T20:58:07.535Z,14.63
2023-05-15T21:00:34.151Z,14.61
2023-05-15T21:03:00.996Z,14.63
2023-05-15T21:05:27.689Z,14.64
2023-05-15T21:07:54.384Z,14.63
2023-05-15T21:10:20.883Z,14.64
2023-05-15T21:12:47.396Z,14.62
2023-05-15T21:15:13.980Z,14.62
2023-05-15T21:17:40.569Z,14.62
2023-05-15T21:20:07.485Z,14.61
2023-05-15T21:22:34.541Z,14.62
2023-05-15T21:25:01.298Z,14.63
2023-05-15T21:27:28.020Z,14.62
2023-05-15T21:29:54.518Z,14.61
2023-05-15T21:32:21.068Z,14.60
2023-05-15T21:34:47.699Z,14.60
2023-05-15T21:37:14.369Z,14.61
2023-05-15T21:39:40.819Z,14.62
2023-05-15T21:42:07.345Z,14.63
2023-05-15T21:44:34.588Z,14.64
2023-05-15T21:47:01.085Z,14.62
2023-05-15T21:49:27.648Z,14.65
2023-05-15T21:51:54.140Z,14.67
2023-05-15T21:54:20.606Z,14.66
2023-05-15T21:56:47.132Z,14.64
2023-05-15T21:59:13.727Z,14.65
2023-05-15T22:01:40.532Z,14.63
2023-05-15T22:04:07.069Z,14.62
2023-05-15T22:06:33.632Z,14.61
2023-05-15T22:09:00.224Z,14.60
2023-05-15T22:11:26.895Z,14.61
2023-05-15T22:13:53.420Z,14.63
2023-05-15T22:16:20.228Z,14.62
2023-05-15T22:18:46.944Z,14.63
2023-05-15T22:21:13.513Z,14.62
2023-05-15T22:23:40.080Z,14.62
2023-05-15T22:26:06.620Z,14.63
2023-05-15T22:28:33.115Z,14.60
2023-05-15T22:30:59.622Z,14.59
2023-05-15T22:33:26.321Z,14.60
2023-05-15T22:35:53.200Z,14.60
2023-05-15T22:38:20.054Z,14.60
2023-05-15T22:40:52.757Z,14.59
2023-05-15T22:43:19.589Z,14.59
2023-05-15T22:45:46.094Z,14.60
2023-05-15T22:48:12.792Z,14.61
2023-05-15T22:50:39.541Z,14.61
2023-05-15T22:53:06.135Z,14.61
2023-05-15T22:55:32.692Z,14.61
2023-05-15T22:57:59.302Z,14.58
2023-05-15T23:00:26.114Z,14.58
2023-05-15T23:02:53.008Z,14.58
2023-05-15T23:05:19.553Z,14.57
2023-05-15T23:07:46.012Z,14.55
2023-05-15T23:10:12.669Z,14.55
2023-05-15T23:12:39.510Z,14.55
2023-05-15T23:15:08.498Z,14.55
2023-05-15T23:17:35.026Z,14.55
2023-05-15T23:20:01.727Z,14.50
2023-05-15T23:22:28.363Z,14.50
2023-05-15T23:24:54.837Z,14.50
2023-05-15T23:27:21.344Z,14.49
2023-05-15T23:29:47.921Z,14.49
2023-05-15T23:32:14.532Z,14.47
2023-05-15T23:34:41.108Z,14.48
2023-05-15T23:37:07.591Z,14.48
2023-05-15T23:39:34.048Z,14.46
2023-05-15T23:42:00.638Z,14.45
2023-05-15T23:44:27.200Z,14.47
2023-05-15T23:46:53.758Z,14.45
2023-05-15T23:49:20.296Z,14.45
2023-05-15T23:51:47.097Z,14.46
2023-05-15T23:54:13.561Z,14.43
2023-05-15T23:56:40.027Z,14.41
2023-05-15T23:59:06.583Z,14.40
